Airport ID:KMHV
Update Time (UTC):22/07/2018 06:33
Wind Speed (Knots):10
Wind Direction (Magnetic):220
Temperature (°C):28
Dew Point (°C):14
Humidity (%):44
Altimeter (inHg):30.06
Density Altitude (Feet):5000
Visibility (Miles):10+
Clouds (Hundreds of feet):CLR
Present Weather:
METAR:METAR KMHV 220620Z AUTO 24012KT 10SM CLR 28/14 A3006 RMK A01

The data displayed is for advisory purposes only and is not to be used for flight planning or operations.

This page is not automatically refreshed. Reload the page to see current data.